Westwood, California
Current Conditions -  °F | °C
As of 4:53 PM on Friday 19 Dec 2014 (Local Time) from KOVE Reporting Station
Light Rain Light Rain  
Wind Chill: 53°   Ceiling: 1100
Heat Index: 53°   Visibility: 6mi
Dew Point: 50°   Wind: 9mph
Humidity: 89%   Direction: 140°SE
Pressure: 30.17"   Gusts: NA
Location:  40.31°N, 121.01°W
Report Text: KOVE 200053Z AUTO 14008KT 6SM -RA BR BKN011 OVC021 12/10 A3017 RMK AO2 SLP220 P0001 T01170100
Loading
Personal Weather Stations






























Interactive Weather Map New forecast layout! Learn more

10-Day Weather Forecast

Advertisements
Track Severe Weather on mobile